Time;durP1;ratioP1;P1;durP2;ratioP2;P2;SDS_P1;SDS_P2;PMS_P1;PMS_P2;Temp;Humidity;BMP_temperature;BMP_pressure;BME280_temperature;BME280_humidity;BME280_pressure;Samples;Min_cycle;Max_cycle;Signal;HPM_P1;HPM_P2
2021/11/17 02:26:56;;;;;;;;;60.00;46.00;;;;;;;;4834822;29;45734;-82
2021/11/17 02:29:30;;;;;;;;;54.50;45.00;;;;;;;;4817993;29;45734;-82
2021/11/17 02:32:09;;;;;;;;;53.75;41.75;;;;;;;;4832276;29;45653;-81
2021/11/17 02:34:41;;;;;;;;;53.00;42.50;;;;;;;;4801173;29;45452;-82
2021/11/17 02:37:25;;;;;;;;;53.33;41.33;;;;;;;;4816801;29;45983;-81
2021/11/17 02:39:50;;;;;;;;;59.75;46.50;;;;;;;;4832877;29;45610;-82
2021/11/17 02:42:42;;;;;;;;;55.50;43.00;;;;;;;;4817579;29;45271;-81
2021/11/17 02:45:07;;;;;;;;;48.00;39.00;;;;;;;;4818611;29;45432;-82
2021/11/17 02:47:41;;;;;;;;;52.75;39.50;;;;;;;;4833381;29;45380;-82
2021/11/17 02:50:19;;;;;;;;;50.00;42.00;;;;;;;;4831511;29;45482;-81
2021/11/17 02:52:51;;;;;;;;;58.00;45.00;;;;;;;;4817101;29;45382;-81
2021/11/17 02:55:19;;;;;;;;;56.50;43.75;;;;;;;;4833390;29;45368;-82
2021/11/17 02:58:03;;;;;;;;;54.00;43.00;;;;;;;;4817225;29;47248;-82
2021/11/17 03:00:39;;;;;;;;;50.67;41.33;;;;;;;;4882828;29;45538;-82
2021/11/17 03:03:14;;;;;;;;;55.50;44.25;;;;;;;;4889965;29;45413;-81
2021/11/17 03:05:42;;;;;;;;;51.50;43.00;;;;;;;;4872824;29;45605;-81
2021/11/17 03:08:10;;;;;;;;;54.33;44.00;;;;;;;;4873113;29;47389;-81
2021/11/17 03:10:38;;;;;;;;;50.33;41.00;;;;;;;;4873421;29;45789;-81
2021/11/17 03:13:03;;;;;;;;;52.50;43.00;;;;;;;;4873709;29;45445;-81
2021/11/17 03:15:48;;;;;;;;;57.33;44.00;;;;;;;;4890471;29;45863;-81
2021/11/17 03:18:22;;;;;;;;;59.75;46.75;;;;;;;;4907948;28;45524;-81
2021/11/17 03:21:06;;;;;;;;;54.25;43.25;;;;;;;;4875717;29;45558;-81
2021/11/17 03:23:39;;;;;;;;;51.50;42.25;;;;;;;;4907266;28;45442;-81
2021/11/17 03:26:17;;;;;;;;;53.33;44.00;;;;;;;;4875145;29;45409;-81
2021/11/17 03:28:48;;;;;;;;;53.50;43.25;;;;;;;;4890677;28;47431;-81
2021/11/17 03:31:17;;;;;;;;;54.50;42.50;;;;;;;;4892185;28;45386;-81
2021/11/17 03:34:07;;;;;;;;;46.67;39.33;;;;;;;;4910231;28;45501;-81
2021/11/17 03:36:42;;;;;;;;;56.25;44.25;;;;;;;;4909646;28;45397;-81
2021/11/17 03:39:22;;;;;;;;;53.75;43.00;;;;;;;;4891997;28;45447;-81
2021/11/17 03:41:48;;;;;;;;;53.00;43.33;;;;;;;;4891243;28;46024;-81
2021/11/17 03:44:20;;;;;;;;;57.25;45.75;;;;;;;;4908911;28;45522;-80
2021/11/17 03:47:11;;;;;;;;;54.75;45.50;;;;;;;;4890243;29;45443;-81
2021/11/17 03:49:42;;;;;;;;;51.33;42.33;;;;;;;;4875781;28;47221;-81
2021/11/17 03:52:14;;;;;;;;;53.00;42.25;;;;;;;;4890674;28;44786;-81
2021/11/17 03:54:58;;;;;;;;;58.33;42.67;;;;;;;;4875449;28;45481;-81
2021/11/17 03:57:24;;;;;;;;;57.00;45.25;;;;;;;;4907524;28;45354;-81
2021/11/17 03:59:53;;;;;;;;;58.25;45.00;;;;;;;;4907994;28;45438;-81
2021/11/17 04:02:32;;;;;;;;;55.00;42.25;;;;;;;;4893385;28;45954;-81
2021/11/17 04:05:16;;;;;;;;;58.75;43.00;;;;;;;;4894814;28;45488;-81
2021/11/17 04:07:48;;;;;;;;;55.50;44.50;;;;;;;;4878016;29;46018;-81
2021/11/17 04:10:13;;;;;;;;;56.00;45.75;;;;;;;;4893381;28;47396;-81
2021/11/17 04:12:57;;;;;;;;;58.00;45.25;;;;;;;;4893424;29;45570;-81
2021/11/17 04:15:29;;;;;;;;;56.25;42.25;;;;;;;;4894186;29;45854;-81
2021/11/17 04:18:13;;;;;;;;;49.00;41.00;;;;;;;;4893374;28;45428;-81
2021/11/17 04:20:48;;;;;;;;;55.50;42.00;;;;;;;;4909489;29;45421;-81
2021/11/17 04:23:22;;;;;;;;;53.50;43.25;;;;;;;;4891966;29;45468;-81
2021/11/17 04:26:00;;;;;;;;;50.75;40.75;;;;;;;;4892756;28;45714;-81
2021/11/17 04:28:31;;;;;;;;;58.25;41.50;;;;;;;;4892466;28;45457;-82
2021/11/17 04:31:10;;;;;;;;;50.00;39.33;;;;;;;;4909443;29;45816;-82
2021/11/17 04:33:38;;;;;;;;;53.50;42.00;;;;;;;;4876614;28;45402;-82
2021/11/17 04:36:06;;;;;;;;;53.00;41.50;;;;;;;;4910660;29;45434;-82
2021/11/17 04:38:53;;;;;;;;;48.33;41.00;;;;;;;;4911960;29;45873;-82
2021/11/17 04:41:18;;;;;;;;;39.00;37.33;;;;;;;;4893140;29;46147;-82
2021/11/17 04:44:02;;;;;;;;;34.00;34.00;;;;;;;;4912917;28;44819;-81
2021/11/17 04:46:27;;;;;;;;;50.00;40.00;;;;;;;;4895374;28;45428;-83
2021/11/17 04:48:55;;;;;;;;;44.67;36.67;;;;;;;;4913620;28;45689;-82
2021/11/17 04:51:30;;;;;;;;;53.00;41.67;;;;;;;;4912057;29;46387;-81
2021/11/17 04:54:24;;;;;;;;;50.67;42.00;;;;;;;;4893691;28;44727;-82
2021/11/17 04:57:03;;;;;;;;;51.75;43.00;;;;;;;;4832587;29;44828;-82
2021/11/17 04:59:47;;;;;;;;;56.00;42.25;;;;;;;;4803939;29;45662;-82
2021/11/17 05:02:13;;;;;;;;;50.67;40.67;;;;;;;;4818968;29;47191;-82
2021/11/17 05:04:50;;;;;;;;;44.00;31.67;;;;;;;;4818930;29;45982;-82
2021/11/17 05:07:18;;;;;;;;;42.67;37.33;;;;;;;;4820507;29;45555;-82
2021/11/17 05:09:50;;;;;;;;;39.33;35.33;;;;;;;;4819330;29;44774;-81
2021/11/17 05:12:27;;;;;;;;;47.33;35.67;;;;;;;;4817611;29;46255;-81
2021/11/17 05:14:52;;;;;;;;;46.00;39.67;;;;;;;;4834154;29;45923;-82
2021/11/17 05:17:27;;;;;;;;;49.00;38.67;;;;;;;;4834019;29;45803;-82
2021/11/17 05:20:01;;;;;;;;;47.00;41.33;;;;;;;;4818752;29;45415;-81
2021/11/17 05:22:35;;;;;;;;;51.33;41.00;;;;;;;;4818631;29;47067;-82
2021/11/17 05:25:19;;;;;;;;;49.33;42.33;;;;;;;;4818485;29;45439;-82
2021/11/17 05:27:47;;;;;;;;;44.33;38.33;;;;;;;;4817896;29;45508;-81
2021/11/17 05:30:23;;;;;;;;;46.00;40.33;;;;;;;;4834186;29;45468;-82
2021/11/17 05:32:51;;;;;;;;;50.67;41.33;;;;;;;;4858124;29;45456;-81
2021/11/17 05:35:25;;;;;;;;;41.67;36.00;;;;;;;;4910063;28;45352;-81
2021/11/17 05:37:50;;;;;;;;;37.67;33.67;;;;;;;;4893468;29;45363;-82
2021/11/17 05:40:39;;;;;;;;;39.00;34.67;;;;;;;;4891937;28;45404;-81
2021/11/17 05:43:23;;;;;;;;;40.67;34.00;;;;;;;;4891333;29;48710;-82
2021/11/17 05:46:08;;;;;;;;;51.33;37.33;;;;;;;;4911352;28;45435;-82
2021/11/17 05:48:33;;;;;;;;;50.00;38.33;;;;;;;;4892715;28;45554;-81
2021/11/17 05:51:25;;;;;;;;;40.33;35.00;;;;;;;;4892745;28;45518;-82
2021/11/17 05:53:59;;;;;;;;;35.33;31.33;;;;;;;;4879379;29;47094;-81
2021/11/17 05:56:48;;;;;;;;;37.33;31.67;;;;;;;;4909299;28;45402;-81
2021/11/17 05:59:25;;;;;;;;;42.33;36.00;;;;;;;;4832037;29;45510;-81
2021/11/17 06:01:59;;;;;;;;;40.33;35.33;;;;;;;;4816209;29;45490;-82
2021/11/17 06:04:24;;;;;;;;;35.67;30.67;;;;;;;;4816257;29;48210;-82
2021/11/17 06:06:50;;;;;;;;;37.00;32.67;;;;;;;;4817886;29;45888;-82
2021/11/17 06:09:15;;;;;;;;;33.67;31.00;;;;;;;;4832879;29;45461;-81
2021/11/17 06:11:43;;;;;;;;;40.67;37.33;;;;;;;;4816226;29;45441;-82
2021/11/17 06:14:10;;;;;;;;;35.67;33.00;;;;;;;;4798284;29;46902;-82
2021/11/17 06:16:47;;;;;;;;;45.00;37.00;;;;;;;;4816128;29;45425;-82
2021/11/17 06:19:13;;;;;;;;;39.00;35.00;;;;;;;;4799365;29;45476;-82
2021/11/17 06:21:40;;;;;;;;;40.33;36.00;;;;;;;;4800579;29;45573;-82
2021/11/17 06:24:06;;;;;;;;;41.33;37.00;;;;;;;;4798866;29;45348;-82
2021/11/17 06:26:36;;;;;;;;;42.67;36.33;;;;;;;;4814647;29;45780;-82
2021/11/17 06:29:06;;;;;;;;;35.33;30.67;;;;;;;;4799805;29;45462;-82
2021/11/17 06:31:34;;;;;;;;;39.67;32.67;;;;;;;;4813294;29;45556;-83
2021/11/17 06:33:59;;;;;;;;;34.33;28.67;;;;;;;;4813279;29;45387;-82
2021/11/17 06:36:25;;;;;;;;;37.00;32.00;;;;;;;;4858190;29;45414;-81
2021/11/17 06:38:50;;;;;;;;;41.00;35.33;;;;;;;;4892150;28;45338;-82
2021/11/17 06:41:16;;;;;;;;;42.00;36.33;;;;;;;;4875636;28;45398;-81
2021/11/17 06:43:41;;;;;;;;;38.00;35.00;;;;;;;;4874315;28;47901;-81
2021/11/17 06:46:07;;;;;;;;;36.67;35.00;;;;;;;;4887738;28;45689;-82
2021/11/17 06:48:33;;;;;;;;;44.00;34.33;;;;;;;;4888569;29;45757;-82
2021/11/17 06:51:05;;;;;;;;;28.33;21.67;;;;;;;;4872595;29;45476;-82
2021/11/17 06:53:30;;;;;;;;;37.33;31.67;;;;;;;;4871511;29;47100;-82
2021/11/17 06:55:56;;;;;;;;;44.00;36.00;;;;;;;;4889333;29;44845;-82
2021/11/17 06:58:23;;;;;;;;;44.67;36.00;;;;;;;;4874758;29;44832;-82
2021/11/17 07:00:49;;;;;;;;;36.67;34.33;;;;;;;;4875426;29;45405;-81
2021/11/17 07:03:15;;;;;;;;;40.00;29.00;;;;;;;;4873770;29;47451;-82
2021/11/17 07:05:41;;;;;;;;;39.33;35.00;;;;;;;;4874497;29;44821;-82
2021/11/17 07:08:06;;;;;;;;;33.67;30.67;;;;;;;;4875657;29;45835;-81
2021/11/17 07:10:39;;;;;;;;;40.67;35.33;;;;;;;;4892816;29;45399;-82
2021/11/17 07:13:05;;;;;;;;;34.00;31.00;;;;;;;;4886516;29;47268;-82
2021/11/17 07:15:34;;;;;;;;;39.33;32.33;;;;;;;;4895372;29;45423;-83
2021/11/17 07:21:03;;;;;;;;;34.33;29.00;;;;;;;;4913362;29;45382;-83
2021/11/17 07:23:29;;;;;;;;;30.33;28.00;;;;;;;;4913599;28;45466;-83
2021/11/17 07:25:54;;;;;;;;;31.00;28.33;;;;;;;;4887964;29;45400;-83
2021/11/17 07:28:23;;;;;;;;;39.00;34.00;;;;;;;;5073614;23;46522;-83
2021/11/17 07:30:49;;;;;;;;;38.00;34.67;;;;;;;;4892275;28;45387;-83
2021/11/17 07:33:14;;;;;;;;;50.33;37.67;;;;;;;;4879557;29;46638;-83
2021/11/17 07:35:47;;;;;;;;;43.00;36.33;;;;;;;;4893866;28;45632;-83
2021/11/17 07:38:18;;;;;;;;;42.00;33.67;;;;;;;;4896270;28;45423;-83
2021/11/17 07:40:44;;;;;;;;;46.00;35.00;;;;;;;;4898612;28;45396;-83
2021/11/17 07:43:10;;;;;;;;;37.67;36.67;;;;;;;;4911625;29;45376;-82
2021/11/17 07:45:40;;;;;;;;;37.00;33.00;;;;;;;;4911154;29;45434;-81
2021/11/17 07:48:06;;;;;;;;;36.67;32.67;;;;;;;;4886733;29;45497;-81
2021/11/17 07:56:40;;;;;;;;;35.33;29.67;;;;;;;;4893187;29;45498;-81
2021/11/17 07:59:06;;;;;;;;;42.67;32.67;;;;;;;;4877071;28;45005;-81
2021/11/17 08:01:31;;;;;;;;;38.33;35.33;;;;;;;;4892258;29;45691;-81
2021/11/17 08:03:57;;;;;;;;;44.00;35.00;;;;;;;;4874806;29;47070;-81
2021/11/17 08:06:24;;;;;;;;;44.67;34.67;;;;;;;;4875493;29;45700;-81
2021/11/17 08:08:52;;;;;;;;;42.33;36.00;;;;;;;;4894049;29;45360;-80
2021/11/17 08:11:21;;;;;;;;;38.67;34.67;;;;;;;;4894056;29;45523;-80
2021/11/17 08:13:59;;;;;;;;;45.67;37.00;;;;;;;;4896506;28;45174;-81
2021/11/17 08:16:26;;;;;;;;;36.33;35.00;;;;;;;;4882426;29;46913;-80
2021/11/17 08:18:51;;;;;;;;;36.33;33.00;;;;;;;;4872917;29;44908;-81
2021/11/17 08:21:18;;;;;;;;;46.67;38.00;;;;;;;;4868580;29;45542;-81
2021/11/17 08:23:45;;;;;;;;;45.33;37.00;;;;;;;;4891560;29;46157;-80
2021/11/17 08:26:14;;;;;;;;;54.67;42.33;;;;;;;;4877277;29;45371;-80
2021/11/17 08:29:01;;;;;;;;;40.00;35.33;;;;;;;;4878301;29;45742;-81
2021/11/17 08:31:30;;;;;;;;;45.33;36.33;;;;;;;;4864127;29;45481;-81
2021/11/17 08:36:58;;;;;;;;;41.33;36.33;;;;;;;;4870270;29;45392;-81
2021/11/17 08:39:24;;;;;;;;;34.00;32.33;;;;;;;;4853484;29;45444;-82
2021/11/17 08:41:49;;;;;;;;;38.67;30.33;;;;;;;;4851704;29;45011;-80
2021/11/17 08:44:14;;;;;;;;;39.67;35.33;;;;;;;;4879171;29;45846;-81
2021/11/17 08:49:43;;;;;;;;;39.67;36.33;;;;;;;;4867778;29;45432;-82
2021/11/17 08:52:09;;;;;;;;;33.67;32.00;;;;;;;;4881249;29;44874;-82
2021/11/17 08:55:01;;;;;;;;;34.67;32.33;;;;;;;;4856959;29;46811;-82
2021/11/17 08:57:26;;;;;;;;;36.00;35.00;;;;;;;;4856936;29;44809;-83
2021/11/17 09:02:54;;;;;;;;;38.33;27.33;;;;;;;;5009756;23;45813;-83
2021/11/17 09:05:21;;;;;;;;;35.33;34.00;;;;;;;;4881865;29;45547;-81
2021/11/17 09:07:49;;;;;;;;;35.33;32.67;;;;;;;;4865197;29;45468;-82
2021/11/17 09:10:17;;;;;;;;;41.00;31.00;;;;;;;;4869594;29;45316;-82
2021/11/17 09:15:50;;;;;;;;;39.67;34.33;;;;;;;;4885731;29;45425;-83
2021/11/17 09:18:18;;;;;;;;;30.33;28.00;;;;;;;;4863427;29;45308;-81
2021/11/17 09:20:50;;;;;;;;;36.67;34.00;;;;;;;;4880569;29;45440;-82
2021/11/17 09:23:19;;;;;;;;;38.67;33.00;;;;;;;;4860410;28;45599;-83
2021/11/17 09:28:47;;;;;;;;;39.00;34.67;;;;;;;;4889353;29;44962;-82
2021/11/17 09:31:22;;;;;;;;;38.33;33.00;;;;;;;;4883917;29;46330;-82
2021/11/17 09:33:51;;;;;;;;;31.67;26.67;;;;;;;;4883022;29;45277;-80
2021/11/17 09:36:18;;;;;;;;;33.67;30.33;;;;;;;;4874328;29;45076;-82
2021/11/17 09:38:50;;;;;;;;;33.00;30.67;;;;;;;;4875050;29;45596;-82
2021/11/17 09:41:16;;;;;;;;;36.67;33.33;;;;;;;;4848982;29;45366;-81
2021/11/17 09:44:08;;;;;;;;;37.00;32.00;;;;;;;;4877621;29;44733;-82
2021/11/17 09:46:54;;;;;;;;;37.33;32.33;;;;;;;;4873391;29;46101;-81
2021/11/17 09:49:23;;;;;;;;;34.00;32.00;;;;;;;;4852731;29;45426;-81
2021/11/17 09:51:53;;;;;;;;;35.00;28.67;;;;;;;;4867412;29;45647;-81
2021/11/17 09:54:23;;;;;;;;;34.67;32.33;;;;;;;;4837626;29;45072;-80
2021/11/17 09:56:57;;;;;;;;;34.00;29.67;;;;;;;;4855972;29;46963;-81
2021/11/17 09:59:25;;;;;;;;;36.00;34.33;;;;;;;;4856955;29;44833;-80
2021/11/17 10:01:54;;;;;;;;;33.67;27.33;;;;;;;;4865300;29;45488;-80
2021/11/17 10:13:04;;;;;;;;;40.00;33.33;;;;;;;;4915268;28;45502;-80
2021/11/17 10:15:35;;;;;;;;;37.33;32.00;;;;;;;;4910037;29;45700;-81
2021/11/17 10:18:06;;;;;;;;;26.33;25.33;;;;;;;;4888321;29;47244;-81
2021/11/17 10:20:43;;;;;;;;;36.33;34.67;;;;;;;;4913297;29;45529;-81
2021/11/17 10:23:18;;;;;;;;;30.33;26.67;;;;;;;;4890832;29;45402;-79
2021/11/17 10:25:44;;;;;;;;;30.00;28.33;;;;;;;;4909674;29;45650;-81
2021/11/17 10:28:13;;;;;;;;;29.33;28.33;;;;;;;;4895098;28;45377;-82
2021/11/17 10:31:12;;;;;;;;;;;;;;;;;;;;;
2021/11/17 10:36:51;;;;;;;;;30.67;27.67;;;;;;;;4911917;28;44737;-82
2021/11/17 10:39:19;;;;;;;;;40.67;31.67;;;;;;;;4890257;29;47678;-82
2021/11/17 10:41:49;;;;;;;;;37.00;33.67;;;;;;;;4894919;29;44923;-81
2021/11/17 10:44:32;;;;;;;;;32.33;28.33;;;;;;;;4892971;29;45544;-83
2021/11/17 10:47:00;;;;;;;;;28.00;24.67;;;;;;;;4886033;29;44914;-81
2021/11/17 10:49:27;;;;;;;;;30.67;27.67;;;;;;;;4888953;29;45267;-82
2021/11/17 10:51:55;;;;;;;;;35.00;26.67;;;;;;;;4904817;28;45483;-81
2021/11/17 10:54:22;;;;;;;;;34.33;29.33;;;;;;;;4879285;29;45309;-81
2021/11/17 10:57:00;;;;;;;;;33.67;29.00;;;;;;;;4905073;29;45471;-82
2021/11/17 10:59:29;;;;;;;;;34.33;29.33;;;;;;;;4904251;29;45311;-82
2021/11/17 11:02:01;;;;;;;;;33.00;27.00;;;;;;;;4904670;29;45470;-82
2021/11/17 11:04:41;;;;;;;;;33.33;27.00;;;;;;;;4908373;29;45613;-82
2021/11/17 11:07:25;;;;;;;;;31.33;28.00;;;;;;;;4907897;29;44856;-83
2021/11/17 11:12:54;;;;;;;;;21.00;18.33;;;;;;;;4899757;28;45717;-82
2021/11/17 11:15:24;;;;;;;;;21.67;20.33;;;;;;;;4893871;29;45843;-81
2021/11/17 11:18:12;;;;;;;;;23.33;21.67;;;;;;;;4901266;29;45169;-82
2021/11/17 11:20:43;;;;;;;;;25.33;23.67;;;;;;;;4902507;29;45306;-80
2021/11/17 11:23:16;;;;;;;;;25.67;21.33;;;;;;;;4888592;28;45472;-81
2021/11/17 11:25:47;;;;;;;;;20.00;18.00;;;;;;;;4892654;29;44943;-81
2021/11/17 11:28:21;;;;;;;;;29.33;27.33;;;;;;;;4906999;28;45579;-82
2021/11/17 11:31:10;;;;;;;;;24.00;23.00;;;;;;;;4889264;29;46206;-81
2021/11/17 11:36:46;;;;;;;;;21.00;19.33;;;;;;;;4914042;29;45288;-81
2021/11/17 11:39:11;;;;;;;;;22.00;21.67;;;;;;;;4890827;29;44852;-82
2021/11/17 11:41:46;;;;;;;;;22.33;21.67;;;;;;;;4895191;29;47463;-83
2021/11/17 11:44:52;;;;;;;;;;;;;;;;;;;;;
2021/11/17 11:47:22;;;;;;;;;20.33;20.00;;;;;;;;4877175;29;68015;-82
2021/11/17 11:49:50;;;;;;;;;22.33;21.67;;;;;;;;4892502;29;45597;-85
2021/11/17 11:52:19;;;;;;;;;22.33;21.33;;;;;;;;4890670;29;47213;-82
2021/11/17 11:54:54;;;;;;;;;22.00;21.00;;;;;;;;4894438;29;45487;-82
2021/11/17 11:57:33;;;;;;;;;19.67;19.00;;;;;;;;4888704;29;45468;-82
2021/11/17 12:00:03;;;;;;;;;26.67;23.33;;;;;;;;4885120;29;44964;-82
2021/11/17 12:02:33;;;;;;;;;19.00;15.00;;;;;;;;4911006;29;46127;-81
2021/11/17 12:11:48;;;;;;;;;;;;;;;;;;;;;
2021/11/17 12:14:26;;;;;;;;;15.67;15.67;;;;;;;;4862205;29;74785;-80
2021/11/17 12:16:56;;;;;;;;;22.00;16.67;;;;;;;;4880115;29;45154;-80
2021/11/17 12:19:30;;;;;;;;;16.33;15.00;;;;;;;;4879308;29;45440;-81
2021/11/17 12:22:11;;;;;;;;;14.33;13.33;;;;;;;;4897435;29;45444;-81
2021/11/17 12:24:38;;;;;;;;;9.33;9.33;;;;;;;;4892533;29;47098;-79
2021/11/17 12:27:04;;;;;;;;;10.33;10.33;;;;;;;;4898435;29;45482;-79
2021/11/17 12:29:41;;;;;;;;;8.00;8.00;;;;;;;;4906713;29;44821;-81
2021/11/17 12:32:16;;;;;;;;;12.00;10.33;;;;;;;;4876729;29;44866;-79
2021/11/17 12:34:47;;;;;;;;;12.67;11.67;;;;;;;;4882508;29;46725;-84
2021/11/17 12:37:28;;;;;;;;;9.00;9.00;;;;;;;;4907614;29;45480;-83
2021/11/17 12:40:06;;;;;;;;;7.00;6.67;;;;;;;;4890167;29;45380;-80
2021/11/17 12:42:40;;;;;;;;;7.33;7.33;;;;;;;;4903510;29;44841;-81
2021/11/17 12:45:30;;;;;;;;;4.00;4.00;;;;;;;;4891410;29;48028;-81
2021/11/17 12:48:02;;;;;;;;;4.00;3.67;;;;;;;;4885478;29;45463;-82
2021/11/17 12:50:40;;;;;;;;;7.00;6.00;;;;;;;;4881213;29;44803;-84
2021/11/17 12:53:13;;;;;;;;;3.00;3.00;;;;;;;;4890624;29;45560;-82
2021/11/17 12:55:42;;;;;;;;;5.00;4.33;;;;;;;;4909483;29;46049;-82
2021/11/17 12:58:07;;;;;;;;;4.00;4.00;;;;;;;;4892890;29;44753;-82
2021/11/17 13:00:40;;;;;;;;;9.33;5.33;;;;;;;;4899351;29;45409;-82
2021/11/17 13:03:11;;;;;;;;;4.00;4.00;;;;;;;;4916100;28;44883;-82
2021/11/17 13:05:38;;;;;;;;;6.67;6.67;;;;;;;;4899982;29;46678;-82
2021/11/17 13:08:04;;;;;;;;;4.00;4.00;;;;;;;;4898908;29;45602;-83
2021/11/17 13:10:29;;;;;;;;;5.00;5.00;;;;;;;;4898712;29;45446;-83
2021/11/17 13:13:21;;;;;;;;;6.00;4.00;;;;;;;;4900348;29;44928;-82
2021/11/17 13:15:49;;;;;;;;;5.00;3.00;;;;;;;;4912607;29;45550;-81
2021/11/17 13:18:30;;;;;;;;;7.33;5.33;;;;;;;;4898967;29;45344;-82
2021/11/17 13:21:23;;;;;;;;;;;;;;;;;;;;;
2021/11/17 13:26:51;;;;;;;;;5.67;4.00;;;;;;;;4896448;29;45426;-82
2021/11/17 13:29:28;;;;;;;;;3.00;2.67;;;;;;;;4895852;29;45506;-82
2021/11/17 13:32:13;;;;;;;;;3.00;3.00;;;;;;;;4887949;29;45729;-81
2021/11/17 13:34:39;;;;;;;;;4.00;4.00;;;;;;;;4896007;29;44995;-80
2021/11/17 13:37:23;;;;;;;;;3.67;3.33;;;;;;;;4912670;29;46512;-80
2021/11/17 13:39:53;;;;;;;;;4.00;3.00;;;;;;;;4897665;29;45355;-79
2021/11/17 13:42:18;;;;;;;;;5.33;5.00;;;;;;;;4899265;29;44870;-81
2021/11/17 13:44:43;;;;;;;;;4.00;4.00;;;;;;;;4911240;28;45431;-82
2021/11/17 13:47:13;;;;;;;;;3.67;3.67;;;;;;;;4912788;29;45406;-82
2021/11/17 13:49:39;;;;;;;;;4.00;4.00;;;;;;;;4894965;29;44936;-82
2021/11/17 13:52:06;;;;;;;;;4.67;4.67;;;;;;;;4879588;29;44781;-82
2021/11/17 13:54:31;;;;;;;;;4.00;4.00;;;;;;;;4879822;29;45421;-83
2021/11/17 13:57:00;;;;;;;;;4.67;4.67;;;;;;;;4886325;29;46533;-82
2021/11/17 13:59:25;;;;;;;;;3.00;3.00;;;;;;;;4882108;29;45531;-82
2021/11/17 14:02:05;;;;;;;;;4.00;4.00;;;;;;;;4876377;29;45444;-81
2021/11/17 14:04:30;;;;;;;;;5.33;4.00;;;;;;;;4880354;29;45519;-81
2021/11/17 14:06:58;;;;;;;;;6.33;4.00;;;;;;;;4880473;29;46058;-81
2021/11/17 14:09:27;;;;;;;;;2.67;2.67;;;;;;;;4885828;29;45916;-81
2021/11/17 14:11:53;;;;;;;;;3.67;3.00;;;;;;;;4893130;29;45327;-82
2021/11/17 14:14:19;;;;;;;;;3.00;3.00;;;;;;;;4909789;29;44895;-82
2021/11/17 14:16:44;;;;;;;;;2.75;2.75;;;;;;;;4901857;29;44989;-82
2021/11/17 14:19:10;;;;;;;;;4.00;4.00;;;;;;;;4906312;29;45376;-82
2021/11/17 14:21:35;;;;;;;;;4.00;4.00;;;;;;;;4888884;29;45408;-83
2021/11/17 14:24:08;;;;;;;;;5.00;3.33;;;;;;;;4886506;29;45401;-83
2021/11/17 14:26:35;;;;;;;;;6.00;5.67;;;;;;;;4877166;29;48639;-82
2021/11/17 14:29:05;;;;;;;;;4.00;4.00;;;;;;;;4913254;29;45380;-82
2021/11/17 14:31:33;;;;;;;;;4.67;4.00;;;;;;;;4908291;28;45623;-82
2021/11/17 14:34:00;;;;;;;;;5.00;5.00;;;;;;;;4914861;28;44865;-82
2021/11/17 14:36:31;;;;;;;;;4.67;4.67;;;;;;;;4891726;29;46972;-82
2021/11/17 14:39:08;;;;;;;;;4.33;4.33;;;;;;;;4893990;28;44934;-82
2021/11/17 14:41:33;;;;;;;;;7.33;6.33;;;;;;;;4875986;29;45340;-83
2021/11/17 14:43:59;;;;;;;;;5.00;5.00;;;;;;;;4890019;29;45374;-82
2021/11/17 14:46:24;;;;;;;;;7.67;6.33;;;;;;;;4903380;28;45533;-82
2021/11/17 14:48:49;;;;;;;;;7.00;5.67;;;;;;;;4893578;29;45383;-82
2021/11/17 14:51:14;;;;;;;;;6.00;5.67;;;;;;;;4907863;29;45025;-83
2021/11/17 14:53:42;;;;;;;;;8.00;6.67;;;;;;;;4905665;29;45019;-83
2021/11/17 14:56:08;;;;;;;;;5.67;4.67;;;;;;;;4913655;29;46248;-80
2021/11/17 14:58:33;;;;;;;;;6.00;6.00;;;;;;;;4894215;29;45807;-81
2021/11/17 15:01:02;;;;;;;;;5.33;4.00;;;;;;;;4891935;29;45163;-81
2021/11/17 15:03:28;;;;;;;;;5.00;4.33;;;;;;;;4881801;29;45405;-81
2021/11/17 15:05:53;;;;;;;;;3.00;3.00;;;;;;;;4900126;29;45024;-82
2021/11/17 15:08:18;;;;;;;;;5.00;3.33;;;;;;;;4883505;29;46067;-82
2021/11/17 15:10:48;;;;;;;;;6.50;4.00;;;;;;;;4887455;28;45405;-82
2021/11/17 15:13:15;;;;;;;;;6.00;6.00;;;;;;;;4888994;29;45618;-83
2021/11/17 15:15:43;;;;;;;;;6.33;5.00;;;;;;;;4904661;28;45437;-83
2021/11/17 15:18:08;;;;;;;;;4.00;4.00;;;;;;;;4899700;28;45422;-81
2021/11/17 15:20:34;;;;;;;;;3.67;3.67;;;;;;;;4876978;29;45383;-82
2021/11/17 15:23:00;;;;;;;;;5.33;5.00;;;;;;;;4902531;28;44849;-82
2021/11/17 15:25:27;;;;;;;;;7.33;7.33;;;;;;;;4888829;29;46999;-81
2021/11/17 15:28:12;;;;;;;;;7.00;6.67;;;;;;;;5048158;23;45625;-83
2021/11/17 15:30:40;;;;;;;;;7.00;7.00;;;;;;;;4912818;28;45645;-82
2021/11/17 15:33:10;;;;;;;;;6.00;6.00;;;;;;;;4909708;29;45467;-82
2021/11/17 15:35:36;;;;;;;;;5.00;5.00;;;;;;;;4905716;28;48202;-82
2021/11/17 15:38:09;;;;;;;;;10.67;6.00;;;;;;;;4908072;28;44864;-81
2021/11/17 15:40:37;;;;;;;;;5.67;5.67;;;;;;;;4909856;29;45397;-80
2021/11/17 15:43:03;;;;;;;;;9.33;9.00;;;;;;;;4903586;29;44824;-81
2021/11/17 15:45:29;;;;;;;;;12.33;12.33;;;;;;;;4904374;29;47187;-84
2021/11/17 15:48:06;;;;;;;;;6.33;5.33;;;;;;;;4900196;29;44954;-83
2021/11/17 15:50:34;;;;;;;;;12.33;10.67;;;;;;;;4913954;28;44770;-81
2021/11/17 15:53:00;;;;;;;;;9.33;9.33;;;;;;;;4898983;29;44764;-81
2021/11/17 15:55:26;;;;;;;;;8.00;8.00;;;;;;;;4902249;29;48039;-81
2021/11/17 15:57:52;;;;;;;;;8.00;7.00;;;;;;;;4904522;29;44841;-82
2021/11/17 16:03:21;;;;;;;;;6.00;6.00;;;;;;;;4914031;29;45472;-82
2021/11/17 16:05:53;;;;;;;;;9.00;6.33;;;;;;;;4906995;29;47042;-82
2021/11/17 16:08:20;;;;;;;;;7.00;7.00;;;;;;;;4903064;29;45493;-81
2021/11/17 16:10:46;;;;;;;;;9.33;9.33;;;;;;;;4914976;29;44799;-81
2021/11/17 16:13:17;;;;;;;;;9.67;6.00;;;;;;;;4906321;28;45459;-83
2021/11/17 16:18:48;;;;;;;;;8.00;6.00;;;;;;;;4921115;28;45767;-82
2021/11/17 16:21:14;;;;;;;;;9.00;6.33;;;;;;;;4928178;28;45420;-81
2021/11/17 16:26:26;;;;;;;;;8.33;8.33;;;;;;;;4915963;29;46134;-81
2021/11/17 16:28:53;;;;;;;;;6.67;6.67;;;;;;;;4927826;28;45431;-79
2021/11/17 16:31:20;;;;;;;;;9.67;9.33;;;;;;;;4938219;28;44909;-81
2021/11/17 16:33:56;;;;;;;;;7.00;7.00;;;;;;;;4899693;29;45514;-81
2021/11/17 16:36:22;;;;;;;;;10.67;7.67;;;;;;;;4918819;29;45265;-81
2021/11/17 16:41:50;;;;;;;;;12.00;10.00;;;;;;;;4958259;28;45427;-80
2021/11/17 16:44:16;;;;;;;;;10.67;10.67;;;;;;;;4943926;28;45500;-82
2021/11/17 16:46:47;;;;;;;;;10.00;10.00;;;;;;;;4950448;28;45567;-81
2021/11/17 16:49:14;;;;;;;;;8.67;6.67;;;;;;;;4921164;28;45408;-81
2021/11/17 16:51:59;;;;;;;;;7.33;7.33;;;;;;;;4951987;28;44838;-81
2021/11/17 16:57:29;;;;;;;;;15.00;11.00;;;;;;;;4825149;29;45766;-82
2021/11/17 16:59:54;;;;;;;;;14.33;10.67;;;;;;;;4825962;29;45438;-82
2021/11/17 17:02:22;;;;;;;;;13.67;12.00;;;;;;;;4818864;29;45158;-81
2021/11/17 17:04:53;;;;;;;;;15.00;12.33;;;;;;;;4843727;29;44827;-81
2021/11/17 17:07:19;;;;;;;;;16.33;13.00;;;;;;;;4821746;29;46164;-81
2021/11/17 17:09:49;;;;;;;;;18.33;16.67;;;;;;;;4828329;29;45452;-81
2021/11/17 17:12:15;;;;;;;;;17.00;13.00;;;;;;;;4826239;29;45405;-80
2021/11/17 17:14:41;;;;;;;;;16.00;13.67;;;;;;;;4823772;29;45683;-81
2021/11/17 17:17:07;;;;;;;;;16.33;15.67;;;;;;;;4839184;29;45017;-82
2021/11/17 17:19:37;;;;;;;;;19.33;19.33;;;;;;;;4827466;29;45444;-82
2021/11/17 17:22:06;;;;;;;;;22.00;19.67;;;;;;;;4841328;29;45441;-82
2021/11/17 17:24:31;;;;;;;;;18.00;18.00;;;;;;;;4825017;29;44932;-83
2021/11/17 17:27:07;;;;;;;;;17.33;17.33;;;;;;;;4828132;29;47466;-82
2021/11/17 17:29:38;;;;;;;;;19.67;17.67;;;;;;;;4834661;29;45553;-83
2021/11/17 17:32:05;;;;;;;;;14.67;14.00;;;;;;;;4877732;29;44755;-83
2021/11/17 17:34:33;;;;;;;;;21.00;18.00;;;;;;;;4915133;29;45464;-82
2021/11/17 17:37:01;;;;;;;;;17.67;17.67;;;;;;;;4896841;29;47013;-83
2021/11/17 17:39:33;;;;;;;;;21.00;20.33;;;;;;;;4895458;28;45858;-83
2021/11/17 17:41:58;;;;;;;;;24.67;22.00;;;;;;;;4896704;29;45407;-83
2021/11/17 17:44:27;;;;;;;;;24.00;24.00;;;;;;;;4915616;28;45676;-83
2021/11/17 17:46:52;;;;;;;;;22.67;20.67;;;;;;;;4896751;29;47938;-84
2021/11/17 17:49:18;;;;;;;;;21.33;20.33;;;;;;;;4912249;28;45463;-83
2021/11/17 17:51:43;;;;;;;;;26.33;23.00;;;;;;;;4896195;28;45675;-84
2021/11/17 17:54:09;;;;;;;;;19.33;18.33;;;;;;;;4926632;28;45441;-82
2021/11/17 17:56:34;;;;;;;;;23.00;21.67;;;;;;;;4930148;28;45349;-83
2021/11/17 17:59:00;;;;;;;;;25.00;21.33;;;;;;;;4915708;28;45318;-83
2021/11/17 18:01:27;;;;;;;;;21.67;21.33;;;;;;;;4925518;28;45357;-83
2021/11/17 18:03:52;;;;;;;;;24.00;21.33;;;;;;;;4923176;28;45865;-83
2021/11/17 18:06:18;;;;;;;;;32.00;27.00;;;;;;;;4911656;28;46858;-83
2021/11/17 18:08:44;;;;;;;;;31.33;31.33;;;;;;;;4915957;28;45480;-83
2021/11/17 18:11:10;;;;;;;;;29.00;28.67;;;;;;;;4949891;28;45431;-83
2021/11/17 18:13:36;;;;;;;;;26.67;24.33;;;;;;;;4913477;28;44840;-83
2021/11/17 18:16:04;;;;;;;;;34.33;30.67;;;;;;;;4894951;29;46902;-83
2021/11/17 18:18:31;;;;;;;;;24.33;24.33;;;;;;;;4928288;28;44759;-83
2021/11/17 18:20:58;;;;;;;;;19.33;18.33;;;;;;;;4913851;28;45341;-82
2021/11/17 18:23:23;;;;;;;;;22.67;21.67;;;;;;;;4905059;28;45512;-82